Time;durP1;ratioP1;P1;durP2;ratioP2;P2;SDS_P1;SDS_P2;PMS_P1;PMS_P2;Temp;Humidity;BMP_temperature;BMP_pressure;BME280_temperature;BME280_humidity;BME280_pressure;Samples;Min_cycle;Max_cycle;Signal;HPM_P1;HPM_P2
2022/08/28 00:01:01;;;;;;;4.15;2.10;;;;;22.00;101840.00;;;;5089619;28;20202;-77
2022/08/28 00:03:29;;;;;;;3.58;1.63;;;;;22.00;101847.00;;;;5086634;28;20322;-77
2022/08/28 00:05:56;;;;;;;3.60;1.67;;;;;22.00;101845.00;;;;5088283;28;20198;-77
2022/08/28 00:08:23;;;;;;;4.82;1.73;;;;;22.00;101848.00;;;;5092638;28;20191;-77
2022/08/28 00:10:52;;;;;;;4.80;2.22;;;;;21.90;101847.00;;;;5086575;28;20209;-77
2022/08/28 00:13:22;;;;;;;6.22;2.00;;;;;21.90;101847.00;;;;5085186;28;20213;-77
2022/08/28 00:15:53;;;;;;;7.97;2.05;;;;;21.90;101843.00;;;;5087433;28;20221;-77
2022/08/28 00:18:21;;;;;;;3.03;1.70;;;;;21.90;101849.00;;;;5095888;28;20193;-76
2022/08/28 00:20:50;;;;;;;4.32;1.52;;;;;21.90;101849.00;;;;5087673;28;20210;-77
2022/08/28 00:23:18;;;;;;;3.50;1.77;;;;;21.80;101848.00;;;;5085013;28;20222;-77
2022/08/28 00:25:45;;;;;;;5.60;1.80;;;;;21.80;101850.00;;;;5086764;28;20202;-76
2022/08/28 00:28:17;;;;;;;2.97;1.58;;;;;21.80;101855.00;;;;5086729;28;20229;-76
2022/08/28 00:30:48;;;;;;;4.18;2.00;;;;;21.80;101856.00;;;;5085165;28;20209;-77
2022/08/28 00:33:18;;;;;;;3.92;1.60;;;;;21.70;101854.00;;;;5094289;28;20197;-77
2022/08/28 00:35:47;;;;;;;3.25;1.38;;;;;21.70;101852.00;;;;5109353;28;20484;-77
2022/08/28 00:38:17;;;;;;;2.55;1.50;;;;;21.70;101845.00;;;;5109077;28;20197;-76
2022/08/28 00:40:46;;;;;;;4.13;1.70;;;;;21.70;101847.00;;;;5089929;28;20244;-76
2022/08/28 00:43:25;;;;;;;13.93;2.55;;;;;21.60;101843.00;;;;5088091;28;20311;-76
2022/08/28 00:45:53;;;;;;;3.20;1.25;;;;;21.70;101849.00;;;;5094839;28;20205;-76
2022/08/28 00:48:20;;;;;;;2.83;1.50;;;;;21.70;101849.00;;;;5096852;28;20190;-77
2022/08/28 00:53:32;;;;;;;4.80;1.50;;;;;21.60;101850.00;;;;5097121;28;20594;-76
2022/08/28 00:56:02;;;;;;;1.50;0.93;;;;;21.60;101849.00;;;;5088079;28;20202;-76
2022/08/28 00:58:31;;;;;;;3.70;1.17;;;;;21.60;101846.00;;;;5087865;28;20198;-77
2022/08/28 01:00:59;;;;;;;2.97;1.40;;;;;21.60;101856.00;;;;5089184;28;20198;-76
2022/08/28 01:03:27;;;;;;;12.23;2.05;;;;;21.60;101847.00;;;;5087089;28;20222;-77
2022/08/28 01:05:55;;;;;;;3.03;1.58;;;;;21.60;101848.00;;;;5087547;28;20202;-77
2022/08/28 01:08:22;;;;;;;3.72;1.58;;;;;21.60;101852.00;;;;5096661;28;20208;-77
2022/08/28 01:10:53;;;;;;;4.22;1.40;;;;;21.50;101850.00;;;;5107782;28;20196;-76
2022/08/28 01:13:23;;;;;;;3.58;1.30;;;;;21.50;101852.00;;;;5086549;28;20695;-76
2022/08/28 01:15:52;;;;;;;2.95;1.40;;;;;21.50;101851.00;;;;5098411;28;20208;-77
2022/08/28 01:18:21;;;;;;;3.65;1.58;;;;;21.50;101850.00;;;;5104370;28;20200;-76
2022/08/28 01:20:56;;;;;;;4.38;2.10;;;;;21.50;101846.00;;;;5090265;28;20226;-76
2022/08/28 01:23:32;;;;;;;3.42;1.45;;;;;21.50;101856.00;;;;5094466;28;20228;-77
2022/08/28 01:26:01;;;;;;;4.00;1.48;;;;;21.50;101855.00;;;;5086990;28;20927;-76
2022/08/28 01:28:28;;;;;;;3.55;1.55;;;;;21.50;101853.00;;;;5083568;28;20222;-76
2022/08/28 01:30:55;;;;;;;3.25;1.27;;;;;21.50;101853.00;;;;5080231;28;20198;-77
2022/08/28 01:33:22;;;;;;;2.17;1.13;;;;;21.50;101851.00;;;;5085669;28;20245;-76
2022/08/28 01:35:50;;;;;;;3.88;1.65;;;;;21.50;101853.00;;;;5085333;28;20194;-76
2022/08/28 01:38:17;;;;;;;3.45;1.30;;;;;21.40;101856.00;;;;5086088;28;20193;-76
2022/08/28 01:40:47;;;;;;;2.63;1.50;;;;;21.40;101860.00;;;;5090571;28;20686;-77
2022/08/28 01:43:19;;;;;;;1.88;0.98;;;;;21.40;101862.00;;;;5092239;28;20197;-77
2022/08/28 01:45:51;;;;;;;5.15;1.27;;;;;21.40;101855.00;;;;5087080;28;20220;-77
2022/08/28 01:48:19;;;;;;;3.00;1.10;;;;;21.40;101854.00;;;;5087162;28;20190;-77
2022/08/28 01:50:47;;;;;;;1.75;1.25;;;;;21.40;101845.00;;;;5090429;28;20210;-77
2022/08/28 01:53:18;;;;;;;2.58;1.40;;;;;21.40;101853.00;;;;5086816;28;20741;-77
2022/08/28 01:55:45;;;;;;;5.10;1.70;;;;;21.40;101852.00;;;;5087677;28;20229;-76
2022/08/28 01:58:15;;;;;;;2.90;0.93;;;;;21.40;101857.00;;;;5087807;28;20201;-77
2022/08/28 02:00:42;;;;;;;2.85;1.20;;;;;21.40;101856.00;;;;5085300;28;20264;-77
2022/08/28 02:03:11;;;;;;;3.28;1.38;;;;;21.40;101852.00;;;;5089922;28;20209;-76
2022/08/28 02:05:39;;;;;;;5.15;1.20;;;;;21.40;101864.00;;;;5085802;28;20199;-76
2022/08/28 02:08:08;;;;;;;3.28;1.70;;;;;21.40;101859.00;;;;5092728;28;20225;-76
2022/08/28 02:10:38;;;;;;;7.22;1.48;;;;;21.40;101859.00;;;;5092788;28;20213;-76
2022/08/28 02:13:06;;;;;;;8.57;1.33;;;;;21.40;101855.00;;;;5082208;28;20194;-77
2022/08/28 02:15:36;;;;;;;2.67;1.13;;;;;21.40;101854.00;;;;5088968;28;20201;-76
2022/08/28 02:18:04;;;;;;;1.35;0.80;;;;;21.40;101864.00;;;;5089421;28;20199;-76
2022/08/28 02:20:33;;;;;;;3.72;1.00;;;;;21.40;101862.00;;;;5092520;28;20221;-76
2022/08/28 02:23:00;;;;;;;2.83;1.08;;;;;21.40;101870.00;;;;5093238;28;20225;-76
2022/08/28 02:25:28;;;;;;;5.38;1.67;;;;;21.40;101877.00;;;;5096705;28;20226;-77
2022/08/28 02:27:56;;;;;;;3.08;0.98;;;;;21.40;101863.00;;;;5087713;28;20297;-76
2022/08/28 02:30:24;;;;;;;4.55;1.48;;;;;21.40;101864.00;;;;5089144;28;20202;-77
2022/08/28 02:32:53;;;;;;;4.78;1.35;;;;;21.30;101875.00;;;;5088045;28;20567;-76
2022/08/28 02:35:23;;;;;;;7.47;2.33;;;;;21.30;101873.00;;;;5089629;28;20202;-77
2022/08/28 02:37:51;;;;;;;2.42;0.90;;;;;21.30;101869.00;;;;5089566;28;20213;-77
2022/08/28 02:40:21;;;;;;;1.83;1.08;;;;;21.30;101871.00;;;;5088716;28;20191;-77
2022/08/28 02:42:49;;;;;;;3.55;1.20;;;;;21.30;101863.00;;;;5087306;28;20668;-77
2022/08/28 02:45:17;;;;;;;2.47;1.20;;;;;21.30;101870.00;;;;5087812;28;20229;-76
2022/08/28 02:47:46;;;;;;;1.80;1.30;;;;;21.20;101875.00;;;;5087061;28;20201;-77
2022/08/28 02:50:16;;;;;;;3.55;1.10;;;;;21.20;101872.00;;;;5088147;28;20187;-76
2022/08/28 02:52:44;;;;;;;2.38;1.17;;;;;21.20;101878.00;;;;5087323;28;20533;-76
2022/08/28 02:55:14;;;;;;;4.97;1.70;;;;;21.20;101870.00;;;;5086353;28;20226;-76
2022/08/28 02:57:42;;;;;;;3.17;0.95;;;;;21.20;101873.00;;;;5083019;28;20198;-76
2022/08/28 03:00:13;;;;;;;2.03;1.00;;;;;21.10;101871.00;;;;5084200;28;20272;-77
2022/08/28 03:02:44;;;;;;;2.85;1.58;;;;;21.10;101870.00;;;;5088661;28;20213;-76
2022/08/28 03:05:12;;;;;;;1.95;1.10;;;;;21.10;101871.00;;;;5079716;28;20230;-76
2022/08/28 03:07:41;;;;;;;2.17;1.33;;;;;21.10;101876.00;;;;5083353;28;20205;-77
2022/08/28 03:10:10;;;;;;;2.05;1.10;;;;;21.00;101874.00;;;;5085949;28;20660;-76
2022/08/28 03:12:38;;;;;;;2.92;1.00;;;;;21.00;101869.00;;;;5085201;28;20602;-76
2022/08/28 03:15:06;;;;;;;2.40;1.30;;;;;21.00;101876.00;;;;5089887;28;20284;-77
2022/08/28 03:17:35;;;;;;;2.25;1.00;;;;;21.00;101864.00;;;;5103862;28;20191;-77
2022/08/28 03:20:03;;;;;;;7.13;1.70;;;;;21.00;101877.00;;;;5088416;28;20225;-77
2022/08/28 03:25:17;;;;;;;2.63;1.25;;;;;20.90;101871.00;;;;5096194;28;20283;-78
2022/08/28 03:27:44;;;;;;;3.28;1.40;;;;;20.90;101876.00;;;;5084951;28;20218;-77
2022/08/28 03:30:12;;;;;;;3.33;1.08;;;;;20.90;101874.00;;;;5088525;28;20580;-77
2022/08/28 03:32:40;;;;;;;3.22;1.23;;;;;20.90;101881.00;;;;5085085;28;20225;-77
2022/08/28 03:35:08;;;;;;;2.75;1.13;;;;;20.90;101887.00;;;;5084347;28;20206;-78
2022/08/28 03:37:35;;;;;;;4.60;1.10;;;;;20.90;101880.00;;;;5088523;28;20202;-77
2022/08/28 03:40:03;;;;;;;4.22;1.02;;;;;20.80;101874.00;;;;5096215;28;20190;-77
2022/08/28 03:42:32;;;;;;;1.85;0.80;;;;;20.80;101880.00;;;;5086074;28;20785;-77
2022/08/28 03:44:59;;;;;;;3.25;1.20;;;;;20.80;101876.00;;;;5101290;28;20637;-77
2022/08/28 03:47:27;;;;;;;3.35;1.30;;;;;20.80;101882.00;;;;5107177;28;20648;-77
2022/08/28 03:49:56;;;;;;;2.08;1.00;;;;;20.80;101877.00;;;;5098880;28;20244;-77
2022/08/28 03:52:23;;;;;;;2.67;1.48;;;;;20.80;101890.00;;;;5078852;28;20210;-77
2022/08/28 03:54:51;;;;;;;2.45;1.17;;;;;20.80;101887.00;;;;5089128;28;20648;-77
2022/08/28 03:57:19;;;;;;;3.28;0.98;;;;;20.80;101895.00;;;;5094489;28;20668;-77
2022/08/28 03:59:50;;;;;;;2.50;1.00;;;;;20.80;101894.00;;;;5098387;28;20201;-78
2022/08/28 04:02:19;;;;;;;4.78;1.10;;;;;20.80;101901.00;;;;5083852;28;20217;-78
2022/08/28 04:04:47;;;;;;;4.68;1.27;;;;;20.80;101900.00;;;;5085609;28;21965;-78
2022/08/28 04:07:14;;;;;;;5.63;1.33;;;;;20.80;101900.00;;;;5083404;28;20197;-77
2022/08/28 04:09:41;;;;;;;2.92;1.13;;;;;20.80;101900.00;;;;5081039;28;20224;-78
2022/08/28 04:12:09;;;;;;;1.45;1.00;;;;;20.80;101904.00;;;;5084325;28;20641;-78
2022/08/28 04:14:37;;;;;;;3.97;1.48;;;;;20.80;101904.00;;;;5079990;28;20205;-78
2022/08/28 04:17:06;;;;;;;3.47;1.65;;;;;20.80;101900.00;;;;5087377;28;20198;-77
2022/08/28 04:19:34;;;;;;;2.42;1.15;;;;;20.80;101902.00;;;;5078508;28;20598;-78
2022/08/28 04:22:02;;;;;;;3.75;1.30;;;;;20.80;101898.00;;;;5087857;28;20191;-78
2022/08/28 04:24:29;;;;;;;1.90;1.00;;;;;20.80;101903.00;;;;5085747;28;20222;-78
2022/08/28 04:26:56;;;;;;;3.50;1.50;;;;;20.80;101910.00;;;;5085345;28;20230;-77
2022/08/28 04:29:24;;;;;;;3.47;1.10;;;;;20.80;101904.00;;;;5088487;28;20197;-78
2022/08/28 04:31:51;;;;;;;4.50;1.48;;;;;20.80;101912.00;;;;5081321;28;20228;-77
2022/08/28 04:34:20;;;;;;;3.22;1.38;;;;;20.80;101915.00;;;;5087251;28;20890;-77
2022/08/28 04:36:49;;;;;;;6.85;1.33;;;;;20.80;101905.00;;;;5087228;28;20705;-77
2022/08/28 04:39:17;;;;;;;4.95;1.15;;;;;20.80;101909.00;;;;5087900;28;21009;-75
2022/08/28 04:41:44;;;;;;;3.67;0.98;;;;;20.80;101915.00;;;;5087005;28;20205;-75
2022/08/28 04:44:11;;;;;;;2.45;1.00;;;;;20.80;101912.00;;;;5089256;28;20194;-75
2022/08/28 04:46:39;;;;;;;2.67;1.35;;;;;20.80;101917.00;;;;5086157;28;20874;-75
2022/08/28 04:49:06;;;;;;;2.78;1.13;;;;;20.80;101920.00;;;;5098380;28;20202;-75
2022/08/28 04:51:35;;;;;;;5.53;1.10;;;;;20.70;101915.00;;;;5088797;28;20213;-76
2022/08/28 04:54:03;;;;;;;3.58;1.40;;;;;20.70;101923.00;;;;5100706;28;20290;-76
2022/08/28 04:56:30;;;;;;;2.97;0.98;;;;;20.70;101919.00;;;;5098196;28;20205;-76
2022/08/28 04:58:57;;;;;;;3.90;1.00;;;;;20.70;101915.00;;;;5095909;28;20198;-76
2022/08/28 05:01:25;;;;;;;3.40;1.38;;;;;20.70;101920.00;;;;5083661;28;20190;-76
2022/08/28 05:03:56;;;;;;;2.80;1.20;;;;;20.70;101926.00;;;;5093337;28;20201;-76
2022/08/28 05:06:26;;;;;;;3.95;1.10;;;;;20.80;101931.00;;;;5087742;28;20229;-76
2022/08/28 05:08:55;;;;;;;3.22;1.02;;;;;20.80;101929.00;;;;5098887;28;20201;-76
2022/08/28 05:11:24;;;;;;;2.53;1.00;;;;;20.80;101927.00;;;;5098820;28;20209;-76
2022/08/28 05:13:52;;;;;;;2.10;1.00;;;;;20.80;101935.00;;;;5085879;28;20194;-76
2022/08/28 05:16:21;;;;;;;5.35;1.13;;;;;20.80;101929.00;;;;5085323;28;20198;-76
2022/08/28 05:18:49;;;;;;;3.47;1.40;;;;;20.80;101932.00;;;;5090852;28;20198;-76
2022/08/28 05:21:19;;;;;;;3.25;1.33;;;;;20.90;101927.00;;;;5088199;28;20198;-78
2022/08/28 05:23:47;;;;;;;2.92;1.20;;;;;20.90;101931.00;;;;5093125;28;20193;-77
2022/08/28 05:26:18;;;;;;;2.70;1.10;;;;;20.90;101928.00;;;;5087480;28;20217;-77
2022/08/28 05:28:46;;;;;;;2.97;0.98;;;;;20.90;101932.00;;;;5091238;28;20230;-77
2022/08/28 05:31:16;;;;;;;7.15;1.58;;;;;21.00;101936.00;;;;5093729;28;20217;-77
2022/08/28 05:33:43;;;;;;;2.60;1.23;;;;;21.00;101941.00;;;;5077217;28;20232;-77
2022/08/28 05:36:11;;;;;;;1.42;1.10;;;;;21.00;101934.00;;;;5086364;28;20209;-77
2022/08/28 05:38:39;;;;;;;2.30;1.08;;;;;21.00;101946.00;;;;5086954;28;21016;-77
2022/08/28 05:41:07;;;;;;;4.40;1.08;;;;;21.10;101943.00;;;;5099661;28;20637;-77
2022/08/28 05:43:36;;;;;;;2.10;1.23;;;;;21.10;101945.00;;;;5104450;28;20186;-77
2022/08/28 05:46:09;;;;;;;4.65;1.23;;;;;21.10;101948.00;;;;5085596;28;20226;-77
2022/08/28 05:48:38;;;;;;;3.83;1.17;;;;;21.20;101943.00;;;;5091565;28;20197;-77
2022/08/28 05:51:06;;;;;;;3.05;1.20;;;;;21.20;101947.00;;;;5099233;28;20194;-77
2022/08/28 05:53:34;;;;;;;3.78;1.40;;;;;21.30;101951.00;;;;5102943;28;20206;-77
2022/08/28 05:56:04;;;;;;;3.35;1.17;;;;;21.30;101952.00;;;;5091058;28;20198;-77
2022/08/28 05:58:33;;;;;;;3.10;0.98;;;;;21.40;101951.00;;;;5107809;28;20207;-77
2022/08/28 06:01:11;;;;;;;2.97;1.10;;;;;21.40;101958.00;;;;5093542;28;20200;-77
2022/08/28 06:03:39;;;;;;;1.50;0.88;;;;;21.50;101961.00;;;;5097150;28;20289;-78
2022/08/28 06:06:07;;;;;;;6.75;1.42;;;;;21.60;101959.00;;;;5085686;28;20225;-78
2022/08/28 06:08:36;;;;;;;5.38;1.20;;;;;21.70;101959.00;;;;5085132;28;20213;-78
2022/08/28 06:11:04;;;;;;;2.95;1.45;;;;;21.70;101954.00;;;;5090707;28;20582;-78
2022/08/28 06:13:33;;;;;;;3.25;1.15;;;;;21.80;101956.00;;;;5090095;28;20199;-78
2022/08/28 06:16:00;;;;;;;4.88;1.30;;;;;21.80;101959.00;;;;5090698;28;20211;-77
2022/08/28 06:18:29;;;;;;;2.63;1.05;;;;;21.90;101962.00;;;;5090585;28;20191;-77
2022/08/28 06:20:56;;;;;;;4.40;1.33;;;;;22.00;101966.00;;;;5089409;28;20222;-78
2022/08/28 06:23:23;;;;;;;3.28;1.20;;;;;22.10;101958.00;;;;5084526;28;20285;-77
2022/08/28 06:25:52;;;;;;;3.42;0.82;;;;;22.10;101966.00;;;;5090020;28;20222;-78
2022/08/28 06:28:21;;;;;;;3.05;1.13;;;;;22.20;101965.00;;;;5089891;28;20229;-77
2022/08/28 06:30:49;;;;;;;2.92;1.00;;;;;22.30;101969.00;;;;5086355;28;20205;-78
2022/08/28 06:33:17;;;;;;;2.10;0.75;;;;;22.30;101963.00;;;;5086469;28;20202;-77
2022/08/28 06:35:48;;;;;;;2.78;1.25;;;;;22.40;101966.00;;;;5090643;28;20202;-77
2022/08/28 06:38:16;;;;;;;2.70;1.13;;;;;22.50;101970.00;;;;5088262;28;20195;-78
2022/08/28 06:40:45;;;;;;;4.38;1.10;;;;;22.50;101971.00;;;;5097529;28;20239;-77
2022/08/28 06:43:14;;;;;;;5.75;1.10;;;;;22.60;101975.00;;;;5091815;28;20435;-78
2022/08/28 06:45:42;;;;;;;2.45;0.88;;;;;22.70;101983.00;;;;5089655;28;20225;-78
2022/08/28 06:48:11;;;;;;;2.17;0.80;;;;;22.80;101976.00;;;;5073229;28;20198;-78
2022/08/28 06:50:42;;;;;;;2.58;0.93;;;;;22.80;101986.00;;;;5100501;28;20201;-78
2022/08/28 06:53:13;;;;;;;2.50;1.02;;;;;22.90;101984.00;;;;5090122;28;20673;-79
2022/08/28 06:55:41;;;;;;;1.73;0.88;;;;;23.00;101983.00;;;;5087177;28;20278;-79
2022/08/28 06:58:09;;;;;;;3.00;0.73;;;;;23.10;101975.00;;;;5090442;28;20202;-79
2022/08/28 07:00:37;;;;;;;3.55;1.02;;;;;23.10;101978.00;;;;5088418;28;20570;-80
2022/08/28 07:03:05;;;;;;;2.53;0.70;;;;;23.20;101975.00;;;;5088056;28;20222;-77
2022/08/28 07:05:33;;;;;;;3.72;1.05;;;;;23.30;101978.00;;;;5081596;28;20227;-78
2022/08/28 07:08:01;;;;;;;1.33;0.93;;;;;23.30;101987.00;;;;5082840;28;20199;-78
2022/08/28 07:10:31;;;;;;;2.97;1.05;;;;;23.40;101979.00;;;;5079697;28;20194;-78
2022/08/28 07:12:59;;;;;;;2.45;0.82;;;;;23.50;101983.00;;;;5085381;28;20214;-78
2022/08/28 07:15:26;;;;;;;3.03;0.80;;;;;23.60;101982.00;;;;5083675;28;20194;-78
2022/08/28 07:17:54;;;;;;;2.63;0.80;;;;;23.70;101988.00;;;;5088771;28;20195;-77
2022/08/28 07:20:21;;;;;;;3.33;1.15;;;;;23.80;101993.00;;;;5087570;28;20221;-77
2022/08/28 07:22:51;;;;;;;3.65;1.05;;;;;23.90;102002.00;;;;5085122;28;20202;-77
2022/08/28 07:25:18;;;;;;;3.00;0.98;;;;;23.90;101993.00;;;;5084246;28;20214;-77
2022/08/28 07:27:47;;;;;;;2.22;0.93;;;;;24.00;101997.00;;;;5085982;28;20531;-76
2022/08/28 07:30:15;;;;;;;2.00;0.73;;;;;24.10;101995.00;;;;5087123;28;20205;-76
2022/08/28 07:32:42;;;;;;;2.50;0.80;;;;;24.20;102004.00;;;;5086189;28;20675;-77
2022/08/28 07:35:10;;;;;;;3.50;0.70;;;;;24.20;102001.00;;;;5085990;28;20199;-77
2022/08/28 07:37:37;;;;;;;1.98;0.75;;;;;24.30;102016.00;;;;5094252;28;20205;-77
2022/08/28 07:40:08;;;;;;;2.67;0.95;;;;;24.30;102009.00;;;;5088988;28;20209;-77
2022/08/28 07:45:22;;;;;;;2.58;0.90;;;;;24.50;102011.00;;;;5069360;28;20218;-76
2022/08/28 07:47:50;;;;;;;1.63;0.90;;;;;24.50;102004.00;;;;5072094;28;20233;-77
2022/08/28 07:50:18;;;;;;;2.13;0.95;;;;;24.60;102005.00;;;;5087741;28;20277;-75
2022/08/28 07:52:45;;;;;;;1.75;0.70;;;;;24.70;102001.00;;;;5087976;28;20205;-75
2022/08/28 07:55:12;;;;;;;2.33;0.90;;;;;24.70;102000.00;;;;5089864;28;20673;-76
2022/08/28 07:57:42;;;;;;;1.50;0.68;;;;;24.80;102004.00;;;;5089394;28;20213;-75
2022/08/28 08:00:11;;;;;;;3.22;0.73;;;;;24.90;102011.00;;;;5095764;28;20280;-75
2022/08/28 08:02:40;;;;;;;1.77;0.80;;;;;24.90;102011.00;;;;5089126;28;20248;-75
2022/08/28 08:05:10;;;;;;;3.58;1.00;;;;;25.00;102014.00;;;;5088436;28;20676;-76
2022/08/28 08:07:39;;;;;;;2.78;0.82;;;;;25.10;102010.00;;;;5087965;28;20213;-76
2022/08/28 08:10:07;;;;;;;3.67;0.90;;;;;25.20;102022.00;;;;5089384;28;20575;-75
2022/08/28 08:12:35;;;;;;;1.50;0.75;;;;;25.30;102027.00;;;;5087874;28;20194;-75
2022/08/28 08:15:02;;;;;;;2.17;0.80;;;;;25.40;102028.00;;;;5087272;28;20191;-76
2022/08/28 08:17:32;;;;;;;1.75;0.85;;;;;25.50;102028.00;;;;5087733;28;20695;-76
2022/08/28 08:20:01;;;;;;;2.65;0.73;;;;;25.50;102020.00;;;;5088327;28;20214;-76
2022/08/28 08:22:29;;;;;;;4.72;1.17;;;;;25.60;102022.00;;;;5088535;28;20197;-75
2022/08/28 08:24:56;;;;;;;2.42;0.57;;;;;25.70;102027.00;;;;5087496;28;20205;-76
2022/08/28 08:27:23;;;;;;;1.65;0.55;;;;;25.70;102032.00;;;;5087166;28;20245;-76
2022/08/28 08:29:51;;;;;;;2.13;0.90;;;;;25.80;102033.00;;;;5096775;28;20206;-76
2022/08/28 08:32:18;;;;;;;1.00;0.50;;;;;25.90;102033.00;;;;5106325;28;20557;-76
2022/08/28 08:34:46;;;;;;;2.58;0.80;;;;;26.00;102039.00;;;;5108504;28;20205;-76
2022/08/28 08:37:15;;;;;;;1.73;0.52;;;;;26.00;102044.00;;;;5108000;28;20212;-75
2022/08/28 08:39:43;;;;;;;2.17;0.82;;;;;26.10;102037.00;;;;5086725;28;20194;-75
2022/08/28 08:42:21;;;;;;;1.42;0.60;;;;;26.20;102030.00;;;;5087295;28;20198;-75
2022/08/28 08:44:49;;;;;;;3.10;0.85;;;;;26.30;102033.00;;;;5087713;28;20206;-76
2022/08/28 08:47:21;;;;;;;1.15;0.50;;;;;26.40;102024.00;;;;5088117;28;20315;-76
2022/08/28 08:49:52;;;;;;;3.88;0.82;;;;;26.50;102029.00;;;;5088471;28;20198;-76
2022/08/28 08:52:44;;;;;;;3.45;0.85;;;;;26.50;102029.00;;;;5087163;28;20194;-76
2022/08/28 08:55:22;;;;;;;1.75;0.60;;;;;26.60;102028.00;;;;5082893;28;20703;-76
2022/08/28 08:57:56;;;;;;;3.40;1.00;;;;;26.70;102025.00;;;;5087661;28;20279;-76
2022/08/28 09:00:24;;;;;;;1.48;0.88;;;;;26.90;102022.00;;;;5088321;28;20206;-76
2022/08/28 09:02:58;;;;;;;3.33;0.80;;;;;27.00;102033.00;;;;5087428;28;20201;-76
2022/08/28 09:05:43;;;;;;;2.72;1.05;;;;;27.10;102022.00;;;;5088053;28;20197;-76
2022/08/28 09:08:25;;;;;;;0.40;0.40;;;;;27.20;102029.00;;;;5088986;28;20190;-76
2022/08/28 09:11:00;;;;;;;0.80;0.50;;;;;27.40;102024.00;;;;5082865;28;20255;-76
2022/08/28 09:13:34;;;;;;;1.95;0.75;;;;;27.40;102028.00;;;;5086862;28;20251;-76
2022/08/28 09:16:06;;;;;;;3.83;0.77;;;;;27.60;102030.00;;;;5087358;28;20210;-76
2022/08/28 09:18:34;;;;;;;1.92;0.52;;;;;27.60;102032.00;;;;5084086;28;20191;-76
2022/08/28 09:21:01;;;;;;;1.67;0.70;;;;;27.70;102041.00;;;;5082777;28;20728;-77
2022/08/28 09:23:30;;;;;;;0.98;0.40;;;;;27.70;102033.00;;;;5084614;28;20193;-75
2022/08/28 09:26:00;;;;;;;2.88;0.80;;;;;27.70;102041.00;;;;5084980;28;20246;-73
2022/08/28 09:28:30;;;;;;;3.88;0.80;;;;;27.80;102044.00;;;;5091470;28;20226;-74
2022/08/28 09:31:01;;;;;;;1.83;0.77;;;;;27.70;102046.00;;;;5092563;28;20201;-74
2022/08/28 09:33:36;;;;;;;1.35;0.70;;;;;27.60;102042.00;;;;5098422;28;20191;-77
2022/08/28 09:36:28;;;;;;;0.85;0.60;;;;;27.50;102035.00;;;;5077514;28;20202;-75
2022/08/28 09:39:10;;;;;;;0.68;0.40;;;;;27.50;102041.00;;;;5077070;28;20664;-77
2022/08/28 09:44:26;;;;;;;2.90;1.23;;;;;27.50;102032.00;;;;5086358;28;20299;-77
2022/08/28 09:46:54;;;;;;;1.13;0.50;;;;;27.40;102036.00;;;;5097549;28;20228;-77
2022/08/28 09:49:27;;;;;;;1.05;0.50;;;;;27.40;102035.00;;;;5100796;28;20199;-78
2022/08/28 09:51:55;;;;;;;1.23;0.50;;;;;27.40;102032.00;;;;5091850;28;20978;-77
2022/08/28 09:54:34;;;;;;;1.02;0.60;;;;;27.40;102034.00;;;;5089736;28;20194;-78
2022/08/28 09:57:02;;;;;;;0.70;0.47;;;;;27.50;102032.00;;;;5081639;28;20202;-77
2022/08/28 09:59:30;;;;;;;1.10;0.70;;;;;27.50;102043.00;;;;5091562;28;20190;-77
2022/08/28 10:02:21;;;;;;;1.73;0.60;;;;;27.40;102030.00;;;;5091617;28;20558;-78
2022/08/28 10:04:58;;;;;;;2.20;0.80;;;;;27.50;102034.00;;;;5091103;28;20750;-77
2022/08/28 10:07:37;;;;;;;1.58;0.90;;;;;27.50;102038.00;;;;5089537;28;20657;-77
2022/08/28 10:10:20;;;;;;;2.47;0.60;;;;;27.60;102049.00;;;;5091431;28;20194;-78
2022/08/28 10:13:00;;;;;;;0.65;0.45;;;;;27.70;102039.00;;;;5090864;28;20186;-77
2022/08/28 10:15:32;;;;;;;3.15;0.80;;;;;27.90;102047.00;;;;5090820;28;20278;-77
2022/08/28 10:18:31;;;;;;;1.02;0.40;;;;;28.00;102048.00;;;;5089962;28;20233;-78
2022/08/28 10:21:09;;;;;;;0.90;0.60;;;;;28.20;102048.00;;;;5090032;28;20214;-78
2022/08/28 10:23:53;;;;;;;2.30;0.50;;;;;28.30;102040.00;;;;5089552;28;20200;-79
2022/08/28 10:26:33;;;;;;;3.25;0.73;;;;;28.40;102044.00;;;;5089691;28;20218;-79
2022/08/28 10:29:17;;;;;;;1.58;0.50;;;;;28.60;102041.00;;;;5090986;28;20317;-79
2022/08/28 10:31:53;;;;;;;1.35;0.90;;;;;28.70;102033.00;;;;5090521;28;20202;-79
2022/08/28 10:34:34;;;;;;;1.05;0.60;;;;;28.80;102036.00;;;;5090693;28;20204;-77
2022/08/28 10:37:09;;;;;;;2.13;0.82;;;;;29.00;102047.00;;;;5090402;28;20205;-78
2022/08/28 10:39:47;;;;;;;1.42;0.73;;;;;29.10;102045.00;;;;5089020;28;20224;-78
2022/08/28 10:42:22;;;;;;;1.88;0.70;;;;;29.20;102056.00;;;;5090593;28;20209;-76
2022/08/28 10:44:55;;;;;;;1.35;0.50;;;;;29.30;102050.00;;;;5090650;28;20209;-76
2022/08/28 10:47:24;;;;;;;2.50;0.45;;;;;29.30;102050.00;;;;5090700;28;20226;-75
2022/08/28 10:50:00;;;;;;;0.73;0.50;;;;;29.30;102056.00;;;;5089678;28;20281;-76
2022/08/28 10:52:34;;;;;;;2.35;0.60;;;;;29.20;102054.00;;;;5088364;28;20281;-76
2022/08/28 10:55:05;;;;;;;2.45;0.65;;;;;29.20;102056.00;;;;5090222;28;20747;-76
2022/08/28 10:57:39;;;;;;;1.02;0.40;;;;;29.20;102043.00;;;;5090158;28;20194;-76
2022/08/28 11:00:10;;;;;;;2.05;0.68;;;;;29.20;102049.00;;;;5089747;28;20205;-77
2022/08/28 11:02:40;;;;;;;1.08;0.52;;;;;29.20;102044.00;;;;5090972;28;20195;-77
2022/08/28 11:05:09;;;;;;;1.27;0.60;;;;;29.20;102053.00;;;;5088831;28;20560;-76
2022/08/28 11:07:41;;;;;;;1.33;0.70;;;;;29.30;102047.00;;;;5106738;28;20234;-77
2022/08/28 11:10:23;;;;;;;5.78;1.10;;;;;29.30;102051.00;;;;5090203;28;20182;-77
2022/08/28 11:12:52;;;;;;;0.70;0.50;;;;;29.30;102040.00;;;;5090066;28;20201;-76
2022/08/28 11:15:42;;;;;;;1.83;0.60;;;;;29.20;102044.00;;;;5088330;28;20577;-76
2022/08/28 11:18:51;;;;;;;3.17;0.60;;;;;29.10;102041.00;;;;5079179;28;20205;-76
2022/08/28 11:21:25;;;;;;;2.78;0.50;;;;;29.10;102045.00;;;;5030115;28;20210;-76
2022/08/28 11:24:00;;;;;;;4.13;0.85;;;;;29.10;102044.00;;;;5081786;28;20563;-76
2022/08/28 11:26:38;;;;;;;1.27;0.50;;;;;29.10;102045.00;;;;5089106;28;20210;-76
2022/08/28 11:29:07;;;;;;;0.70;0.43;;;;;29.10;102048.00;;;;5090003;28;20237;-76
2022/08/28 11:31:40;;;;;;;1.33;0.57;;;;;29.20;102047.00;;;;5084879;28;20202;-76
2022/08/28 11:34:07;;;;;;;0.90;0.68;;;;;29.30;102051.00;;;;5084430;28;20190;-76
2022/08/28 11:36:59;;;;;;;0.90;0.40;;;;;29.10;102055.00;;;;5079730;28;20201;-76
2022/08/28 11:39:26;;;;;;;0.82;0.50;;;;;29.20;102046.00;;;;5086117;28;20205;-76
2022/08/28 11:42:28;;;;;;;1.00;0.50;;;;;29.00;102047.00;;;;5088731;28;20213;-76
2022/08/28 11:45:00;;;;;;;1.80;0.38;;;;;29.20;102043.00;;;;5089204;28;20596;-75
2022/08/28 11:47:47;;;;;;;1.35;0.70;;;;;29.10;102038.00;;;;5083179;28;20218;-76
2022/08/28 11:50:25;;;;;;;1.58;0.40;;;;;29.20;102041.00;;;;5083785;28;20190;-76
2022/08/28 11:53:25;;;;;;;0.65;0.45;;;;;29.10;102038.00;;;;5084858;28;20193;-75
2022/08/28 11:56:08;;;;;;;2.95;0.90;;;;;29.10;102045.00;;;;5084142;28;20252;-75
2022/08/28 11:58:43;;;;;;;1.05;0.50;;;;;29.00;102048.00;;;;5080876;28;20209;-76
2022/08/28 12:01:13;;;;;;;0.93;0.45;;;;;29.10;102045.00;;;;5084274;28;20213;-77
2022/08/28 12:03:44;;;;;;;0.65;0.50;;;;;29.00;102043.00;;;;5084293;28;20205;-76
2022/08/28 12:06:12;;;;;;;1.25;0.77;;;;;29.00;102041.00;;;;5084866;28;20207;-77
2022/08/28 12:09:10;;;;;;;1.10;0.50;;;;;28.90;102053.00;;;;5088408;28;20607;-77
2022/08/28 12:11:53;;;;;;;0.70;0.50;;;;;28.90;102053.00;;;;5087864;28;20194;-76
2022/08/28 12:15:06;;;;;;;1.00;0.55;;;;;28.90;102045.00;;;;5071059;28;20198;-77
2022/08/28 12:17:49;;;;;;;1.63;0.35;;;;;29.00;102043.00;;;;5085365;28;20731;-76
2022/08/28 12:20:24;;;;;;;1.10;0.50;;;;;29.00;102054.00;;;;5083702;28;20217;-76
2022/08/28 12:22:54;;;;;;;1.05;0.50;;;;;29.10;102058.00;;;;5085330;28;20206;-76
2022/08/28 12:25:29;;;;;;;2.55;0.35;;;;;29.00;102056.00;;;;5081390;28;20188;-76
2022/08/28 12:27:59;;;;;;;2.28;0.80;;;;;29.00;102049.00;;;;5079984;28;20233;-78
2022/08/28 12:30:29;;;;;;;1.55;0.70;;;;;28.90;102045.00;;;;5081121;28;20195;-78
2022/08/28 12:33:08;;;;;;;3.38;0.80;;;;;28.80;102036.00;;;;5082095;28;20884;-77
2022/08/28 12:35:35;;;;;;;1.80;0.70;;;;;28.90;102043.00;;;;5087600;28;20194;-76
2022/08/28 12:38:04;;;;;;;1.88;0.60;;;;;28.80;102045.00;;;;5080041;28;20199;-77